sensor_id;sensor_type;location;lat;lon;timestamp;temperature;humidity
71942;DHT22;59997;53.300;-6.260;2023-09-18T00:00:48;14.58;93.88
71942;DHT22;59997;53.300;-6.260;2023-09-18T00:03:22;14.54;93.81
71942;DHT22;59997;53.300;-6.260;2023-09-18T00:05:50;14.51;93.79
71942;DHT22;59997;53.300;-6.260;2023-09-18T00:08:17;14.48;93.75
71942;DHT22;59997;53.300;-6.260;2023-09-18T00:10:45;14.42;93.74
71942;DHT22;59997;53.300;-6.260;2023-09-18T00:13:12;14.36;93.78
71942;DHT22;59997;53.300;-6.260;2023-09-18T00:15:37;14.37;93.79
71942;DHT22;59997;53.300;-6.260;2023-09-18T00:18:04;14.36;93.80
71942;DHT22;59997;53.300;-6.260;2023-09-18T00:20:30;14.31;93.79
71942;DHT22;59997;53.300;-6.260;2023-09-18T00:22:55;14.36;93.86
71942;DHT22;59997;53.300;-6.260;2023-09-18T00:25:24;14.34;93.81
71942;DHT22;59997;53.300;-6.260;2023-09-18T00:27:49;14.30;93.78
71942;DHT22;59997;53.300;-6.260;2023-09-18T00:30:17;14.31;93.80
71942;DHT22;59997;53.300;-6.260;2023-09-18T00:32:42;14.27;93.78
71942;DHT22;59997;53.300;-6.260;2023-09-18T00:35:08;14.27;93.78
71942;DHT22;59997;53.300;-6.260;2023-09-18T00:37:33;14.30;93.75
71942;DHT22;59997;53.300;-6.260;2023-09-18T00:39:59;14.26;93.68
71942;DHT22;59997;53.300;-6.260;2023-09-18T00:42:25;14.27;93.70
71942;DHT22;59997;53.300;-6.260;2023-09-18T00:44:50;14.31;93.69
71942;DHT22;59997;53.300;-6.260;2023-09-18T00:47:16;14.27;93.64
71942;DHT22;59997;53.300;-6.260;2023-09-18T00:49:45;14.27;93.63
71942;DHT22;59997;53.300;-6.260;2023-09-18T00:52:12;14.23;93.58
71942;DHT22;59997;53.300;-6.260;2023-09-18T00:54:38;14.27;93.63
71942;DHT22;59997;53.300;-6.260;2023-09-18T00:57:05;14.24;93.54
71942;DHT22;59997;53.300;-6.260;2023-09-18T00:59:31;14.21;93.56
71942;DHT22;59997;53.300;-6.260;2023-09-18T01:01:56;14.19;93.54
71942;DHT22;59997;53.300;-6.260;2023-09-18T01:04:22;14.19;93.62
71942;DHT22;59997;53.300;-6.260;2023-09-18T01:06:50;14.20;93.60
71942;DHT22;59997;53.300;-6.260;2023-09-18T01:09:19;14.20;93.63
71942;DHT22;59997;53.300;-6.260;2023-09-18T01:17:18;14.12;93.54
71942;DHT22;59997;53.300;-6.260;2023-09-18T01:19:45;14.08;93.57
71942;DHT22;59997;53.300;-6.260;2023-09-18T01:22:16;14.12;93.57
71942;DHT22;59997;53.300;-6.260;2023-09-18T01:24:43;14.12;93.57
71942;DHT22;59997;53.300;-6.260;2023-09-18T01:27:14;14.10;93.55
71942;DHT22;59997;53.300;-6.260;2023-09-18T01:29:51;14.08;93.58
71942;DHT22;59997;53.300;-6.260;2023-09-18T01:32:18;14.03;93.61
71942;DHT22;59997;53.300;-6.260;2023-09-18T01:34:52;14.02;93.68
71942;DHT22;59997;53.300;-6.260;2023-09-18T01:37:21;14.03;93.67
71942;DHT22;59997;53.300;-6.260;2023-09-18T01:39:48;14.02;93.60
71942;DHT22;59997;53.300;-6.260;2023-09-18T01:42:14;14.03;93.66
71942;DHT22;59997;53.300;-6.260;2023-09-18T01:44:40;14.02;93.64
71942;DHT22;59997;53.300;-6.260;2023-09-18T01:47:08;14.02;93.64
71942;DHT22;59997;53.300;-6.260;2023-09-18T01:49:35;14.03;93.63
71942;DHT22;59997;53.300;-6.260;2023-09-18T01:52:02;13.99;93.62
71942;DHT22;59997;53.300;-6.260;2023-09-18T01:54:28;13.99;93.64
71942;DHT22;59997;53.300;-6.260;2023-09-18T01:56:53;13.98;93.65
71942;DHT22;59997;53.300;-6.260;2023-09-18T01:59:19;14.05;93.65
71942;DHT22;59997;53.300;-6.260;2023-09-18T02:01:45;14.06;93.57
71942;DHT22;59997;53.300;-6.260;2023-09-18T02:04:11;14.08;93.54
71942;DHT22;59997;53.300;-6.260;2023-09-18T02:06:36;14.05;93.51
71942;DHT22;59997;53.300;-6.260;2023-09-18T02:09:02;14.05;93.52
71942;DHT22;59997;53.300;-6.260;2023-09-18T02:11:34;14.05;93.55
71942;DHT22;59997;53.300;-6.260;2023-09-18T02:14:00;14.09;93.57
71942;DHT22;59997;53.300;-6.260;2023-09-18T02:16:31;14.10;93.58
71942;DHT22;59997;53.300;-6.260;2023-09-18T02:18:56;14.10;93.54
71942;DHT22;59997;53.300;-6.260;2023-09-18T02:21:22;14.09;93.53
71942;DHT22;59997;53.300;-6.260;2023-09-18T02:23:52;14.12;93.51
71942;DHT22;59997;53.300;-6.260;2023-09-18T02:26:21;14.14;93.50
71942;DHT22;59997;53.300;-6.260;2023-09-18T02:28:47;14.10;93.46
71942;DHT22;59997;53.300;-6.260;2023-09-18T02:31:13;14.10;93.39
71942;DHT22;59997;53.300;-6.260;2023-09-18T02:33:40;14.12;93.37
71942;DHT22;59997;53.300;-6.260;2023-09-18T02:36:06;14.13;93.35
71942;DHT22;59997;53.300;-6.260;2023-09-18T02:38:33;14.08;93.40
71942;DHT22;59997;53.300;-6.260;2023-09-18T02:40:59;14.06;93.46
71942;DHT22;59997;53.300;-6.260;2023-09-18T02:43:24;14.16;93.47
71942;DHT22;59997;53.300;-6.260;2023-09-18T02:45:50;14.10;93.44
71942;DHT22;59997;53.300;-6.260;2023-09-18T02:48:16;14.09;93.43
71942;DHT22;59997;53.300;-6.260;2023-09-18T02:50:42;14.09;93.38
71942;DHT22;59997;53.300;-6.260;2023-09-18T02:53:17;14.08;93.43
71942;DHT22;59997;53.300;-6.260;2023-09-18T02:55:43;14.06;93.45
71942;DHT22;59997;53.300;-6.260;2023-09-18T02:58:09;14.08;93.46
71942;DHT22;59997;53.300;-6.260;2023-09-18T03:00:41;14.08;93.40
71942;DHT22;59997;53.300;-6.260;2023-09-18T03:03:08;14.12;93.43
71942;DHT22;59997;53.300;-6.260;2023-09-18T03:05:33;14.05;93.47
71942;DHT22;59997;53.300;-6.260;2023-09-18T03:07:59;14.10;93.39
71942;DHT22;59997;53.300;-6.260;2023-09-18T03:10:24;14.09;93.31
71942;DHT22;59997;53.300;-6.260;2023-09-18T03:12:49;14.12;93.33
71942;DHT22;59997;53.300;-6.260;2023-09-18T03:15:15;14.10;93.25
71942;DHT22;59997;53.300;-6.260;2023-09-18T03:17:41;14.12;93.17
71942;DHT22;59997;53.300;-6.260;2023-09-18T03:20:08;14.09;93.06
71942;DHT22;59997;53.300;-6.260;2023-09-18T03:22:34;14.08;92.95
71942;DHT22;59997;53.300;-6.260;2023-09-18T03:24:59;14.05;92.88
71942;DHT22;59997;53.300;-6.260;2023-09-18T03:27:25;14.02;92.92
71942;DHT22;59997;53.300;-6.260;2023-09-18T03:29:54;14.03;92.94
71942;DHT22;59997;53.300;-6.260;2023-09-18T03:32:20;14.02;92.93
71942;DHT22;59997;53.300;-6.260;2023-09-18T03:34:46;14.03;92.96
71942;DHT22;59997;53.300;-6.260;2023-09-18T03:37:11;14.06;92.95
71942;DHT22;59997;53.300;-6.260;2023-09-18T03:39:37;14.03;92.92
71942;DHT22;59997;53.300;-6.260;2023-09-18T03:42:02;14.01;92.85
71942;DHT22;59997;53.300;-6.260;2023-09-18T03:44:28;13.98;92.77
71942;DHT22;59997;53.300;-6.260;2023-09-18T03:46:54;13.87;92.66
71942;DHT22;59997;53.300;-6.260;2023-09-18T03:49:19;13.82;92.64
71942;DHT22;59997;53.300;-6.260;2023-09-18T03:51:45;13.78;92.62
71942;DHT22;59997;53.300;-6.260;2023-09-18T03:54:10;13.71;92.46
71942;DHT22;59997;53.300;-6.260;2023-09-18T03:56:35;13.64;92.42
71942;DHT22;59997;53.300;-6.260;2023-09-18T03:59:01;13.64;92.33
71942;DHT22;59997;53.300;-6.260;2023-09-18T04:01:27;13.55;92.27
71942;DHT22;59997;53.300;-6.260;2023-09-18T04:03:53;13.54;92.26
71942;DHT22;59997;53.300;-6.260;2023-09-18T04:06:21;13.55;92.18
71942;DHT22;59997;53.300;-6.260;2023-09-18T04:08:46;13.50;92.24
71942;DHT22;59997;53.300;-6.260;2023-09-18T04:11:12;13.51;92.32
71942;DHT22;59997;53.300;-6.260;2023-09-18T04:13:37;13.51;92.20
71942;DHT22;59997;53.300;-6.260;2023-09-18T04:16:04;13.47;92.27
71942;DHT22;59997;53.300;-6.260;2023-09-18T04:18:30;13.44;92.26
71942;DHT22;59997;53.300;-6.260;2023-09-18T04:20:55;13.39;92.17
71942;DHT22;59997;53.300;-6.260;2023-09-18T04:23:26;13.33;92.26
71942;DHT22;59997;53.300;-6.260;2023-09-18T04:25:53;13.28;92.33
71942;DHT22;59997;53.300;-6.260;2023-09-18T04:28:20;13.20;92.35
71942;DHT22;59997;53.300;-6.260;2023-09-18T04:30:46;13.10;92.33
71942;DHT22;59997;53.300;-6.260;2023-09-18T04:33:15;12.98;92.23
71942;DHT22;59997;53.300;-6.260;2023-09-18T04:35:41;12.85;92.10
71942;DHT22;59997;53.300;-6.260;2023-09-18T04:38:07;12.75;91.97
71942;DHT22;59997;53.300;-6.260;2023-09-18T04:40:37;12.71;92.06
71942;DHT22;59997;53.300;-6.260;2023-09-18T04:43:02;12.69;92.13
71942;DHT22;59997;53.300;-6.260;2023-09-18T04:45:31;12.69;92.19
71942;DHT22;59997;53.300;-6.260;2023-09-18T04:47:58;12.67;92.02
71942;DHT22;59997;53.300;-6.260;2023-09-18T04:50:23;12.65;92.06
71942;DHT22;59997;53.300;-6.260;2023-09-18T04:52:50;12.56;92.11
71942;DHT22;59997;53.300;-6.260;2023-09-18T04:55:17;12.51;92.10
71942;DHT22;59997;53.300;-6.260;2023-09-18T04:57:42;12.43;92.15
71942;DHT22;59997;53.300;-6.260;2023-09-18T05:00:08;12.39;92.18
71942;DHT22;59997;53.300;-6.260;2023-09-18T05:02:39;12.36;92.22
71942;DHT22;59997;53.300;-6.260;2023-09-18T05:05:06;12.34;92.24
71942;DHT22;59997;53.300;-6.260;2023-09-18T05:07:34;12.28;92.27
71942;DHT22;59997;53.300;-6.260;2023-09-18T05:10:00;12.28;92.31
71942;DHT22;59997;53.300;-6.260;2023-09-18T05:12:26;12.21;92.30
71942;DHT22;59997;53.300;-6.260;2023-09-18T05:14:51;12.22;92.32
71942;DHT22;59997;53.300;-6.260;2023-09-18T05:17:17;12.18;92.32
71942;DHT22;59997;53.300;-6.260;2023-09-18T05:19:44;12.15;92.32
71942;DHT22;59997;53.300;-6.260;2023-09-18T05:22:10;12.15;92.31
71942;DHT22;59997;53.300;-6.260;2023-09-18T05:24:39;12.12;92.29
71942;DHT22;59997;53.300;-6.260;2023-09-18T05:27:05;12.05;92.32
71942;DHT22;59997;53.300;-6.260;2023-09-18T05:29:34;12.04;92.29
71942;DHT22;59997;53.300;-6.260;2023-09-18T05:32:01;12.01;92.36
71942;DHT22;59997;53.300;-6.260;2023-09-18T05:34:27;12.04;92.32
71942;DHT22;59997;53.300;-6.260;2023-09-18T05:36:52;11.97;92.37
71942;DHT22;59997;53.300;-6.260;2023-09-18T05:39:18;11.94;92.27
71942;DHT22;59997;53.300;-6.260;2023-09-18T05:41:43;11.91;92.24
71942;DHT22;59997;53.300;-6.260;2023-09-18T05:44:09;11.88;92.26
71942;DHT22;59997;53.300;-6.260;2023-09-18T05:46:35;11.84;92.06
71942;DHT22;59997;53.300;-6.260;2023-09-18T05:49:02;11.84;91.82
71942;DHT22;59997;53.300;-6.260;2023-09-18T05:51:27;11.82;91.74
71942;DHT22;59997;53.300;-6.260;2023-09-18T05:53:53;11.89;91.79
71942;DHT22;59997;53.300;-6.260;2023-09-18T05:56:18;11.88;91.77
71942;DHT22;59997;53.300;-6.260;2023-09-18T05:58:44;11.77;91.73
71942;DHT22;59997;53.300;-6.260;2023-09-18T06:01:10;11.69;91.85
71942;DHT22;59997;53.300;-6.260;2023-09-18T06:03:35;11.63;91.92
71942;DHT22;59997;53.300;-6.260;2023-09-18T06:06:05;11.64;92.07
71942;DHT22;59997;53.300;-6.260;2023-09-18T06:08:30;11.60;92.11
71942;DHT22;59997;53.300;-6.260;2023-09-18T06:10:57;11.57;92.13
71942;DHT22;59997;53.300;-6.260;2023-09-18T06:13:24;11.63;92.10
71942;DHT22;59997;53.300;-6.260;2023-09-18T06:15:51;11.63;92.12
71942;DHT22;59997;53.300;-6.260;2023-09-18T06:18:18;11.63;92.05
71942;DHT22;59997;53.300;-6.260;2023-09-18T06:20:46;11.69;92.03
71942;DHT22;59997;53.300;-6.260;2023-09-18T06:23:12;11.67;92.08
71942;DHT22;59997;53.300;-6.260;2023-09-18T06:25:38;11.69;92.08
71942;DHT22;59997;53.300;-6.260;2023-09-18T06:28:04;11.70;92.09
71942;DHT22;59997;53.300;-6.260;2023-09-18T06:30:30;11.73;92.15
71942;DHT22;59997;53.300;-6.260;2023-09-18T06:33:00;11.77;92.10
71942;DHT22;59997;53.300;-6.260;2023-09-18T06:35:26;11.78;92.09
71942;DHT22;59997;53.300;-6.260;2023-09-18T06:37:51;11.81;92.09
71942;DHT22;59997;53.300;-6.260;2023-09-18T06:40:19;11.81;92.14
71942;DHT22;59997;53.300;-6.260;2023-09-18T06:42:45;11.81;92.15
71942;DHT22;59997;53.300;-6.260;2023-09-18T06:45:11;11.77;92.14
71942;DHT22;59997;53.300;-6.260;2023-09-18T06:47:36;11.77;92.16
71942;DHT22;59997;53.300;-6.260;2023-09-18T06:50:02;11.77;92.22
71942;DHT22;59997;53.300;-6.260;2023-09-18T06:52:30;11.74;92.14
71942;DHT22;59997;53.300;-6.260;2023-09-18T06:54:55;11.74;92.18
71942;DHT22;59997;53.300;-6.260;2023-09-18T06:57:23;11.73;92.22
71942;DHT22;59997;53.300;-6.260;2023-09-18T06:59:48;11.69;92.24
71942;DHT22;59997;53.300;-6.260;2023-09-18T07:02:14;11.64;92.29
71942;DHT22;59997;53.300;-6.260;2023-09-18T07:04:41;11.62;92.15
71942;DHT22;59997;53.300;-6.260;2023-09-18T07:07:14;11.54;92.18
71942;DHT22;59997;53.300;-6.260;2023-09-18T07:09:42;11.54;92.21
71942;DHT22;59997;53.300;-6.260;2023-09-18T07:12:08;11.60;92.10
71942;DHT22;59997;53.300;-6.260;2023-09-18T07:14:35;11.54;92.09
71942;DHT22;59997;53.300;-6.260;2023-09-18T07:17:01;11.56;92.06
71942;DHT22;59997;53.300;-6.260;2023-09-18T07:19:27;11.53;92.03
71942;DHT22;59997;53.300;-6.260;2023-09-18T07:21:53;11.53;92.05
71942;DHT22;59997;53.300;-6.260;2023-09-18T07:24:18;11.49;92.07
71942;DHT22;59997;53.300;-6.260;2023-09-18T07:26:47;11.52;92.08
71942;DHT22;59997;53.300;-6.260;2023-09-18T07:29:16;11.53;92.06
71942;DHT22;59997;53.300;-6.260;2023-09-18T07:31:42;11.56;92.08
71942;DHT22;59997;53.300;-6.260;2023-09-18T07:34:10;11.63;92.09
71942;DHT22;59997;53.300;-6.260;2023-09-18T07:36:36;11.66;92.05
71942;DHT22;59997;53.300;-6.260;2023-09-18T07:39:02;11.70;92.01
71942;DHT22;59997;53.300;-6.260;2023-09-18T07:41:29;11.74;91.92
71942;DHT22;59997;53.300;-6.260;2023-09-18T07:43:55;11.74;91.98
71942;DHT22;59997;53.300;-6.260;2023-09-18T07:46:22;11.80;91.88
71942;DHT22;59997;53.300;-6.260;2023-09-18T07:48:48;11.88;91.90
71942;DHT22;59997;53.300;-6.260;2023-09-18T07:51:13;12.01;91.81
71942;DHT22;59997;53.300;-6.260;2023-09-18T07:53:41;12.12;91.71
71942;DHT22;59997;53.300;-6.260;2023-09-18T07:56:07;12.32;91.58
71942;DHT22;59997;53.300;-6.260;2023-09-18T07:58:32;12.33;91.50
71942;DHT22;59997;53.300;-6.260;2023-09-18T08:00:59;12.96;90.69
71942;DHT22;59997;53.300;-6.260;2023-09-18T08:03:25;13.72;89.34
71942;DHT22;59997;53.300;-6.260;2023-09-18T08:05:54;14.08;87.83
71942;DHT22;59997;53.300;-6.260;2023-09-18T08:08:20;14.31;86.91
71942;DHT22;59997;53.300;-6.260;2023-09-18T08:10:47;14.13;85.58
71942;DHT22;59997;53.300;-6.260;2023-09-18T08:13:13;14.03;86.05
71942;DHT22;59997;53.300;-6.260;2023-09-18T08:15:39;14.51;85.32
71942;DHT22;59997;53.300;-6.260;2023-09-18T08:18:05;14.52;84.59
71942;DHT22;59997;53.300;-6.260;2023-09-18T08:20:30;14.95;84.48
71942;DHT22;59997;53.300;-6.260;2023-09-18T08:22:56;15.10;83.44
71942;DHT22;59997;53.300;-6.260;2023-09-18T08:25:22;15.07;83.29
71942;DHT22;59997;53.300;-6.260;2023-09-18T08:27:47;15.19;82.70
71942;DHT22;59997;53.300;-6.260;2023-09-18T08:30:14;14.95;82.50
71942;DHT22;59997;53.300;-6.260;2023-09-18T08:32:41;14.83;82.75
71942;DHT22;59997;53.300;-6.260;2023-09-18T08:35:08;14.89;83.02
71942;DHT22;59997;53.300;-6.260;2023-09-18T08:37:33;15.02;82.44
71942;DHT22;59997;53.300;-6.260;2023-09-18T08:39:59;15.10;82.09
71942;DHT22;59997;53.300;-6.260;2023-09-18T08:42:36;15.16;80.64
71942;DHT22;59997;53.300;-6.260;2023-09-18T08:45:08;15.27;81.16
71942;DHT22;59997;53.300;-6.260;2023-09-18T08:47:38;15.06;79.24
71942;DHT22;59997;53.300;-6.260;2023-09-18T08:50:05;15.10;79.76
71942;DHT22;59997;53.300;-6.260;2023-09-18T08:52:33;15.17;80.07
71942;DHT22;59997;53.300;-6.260;2023-09-18T08:55:00;15.30;79.39
71942;DHT22;59997;53.300;-6.260;2023-09-18T08:57:27;15.27;78.05
71942;DHT22;59997;53.300;-6.260;2023-09-18T08:59:55;15.51;78.04
71942;DHT22;59997;53.300;-6.260;2023-09-18T09:02:20;15.63;77.84
71942;DHT22;59997;53.300;-6.260;2023-09-18T09:04:46;15.92;76.93
71942;DHT22;59997;53.300;-6.260;2023-09-18T09:07:11;15.92;77.22
71942;DHT22;59997;53.300;-6.260;2023-09-18T09:09:37;16.16;75.82
71942;DHT22;59997;53.300;-6.260;2023-09-18T09:12:04;16.34;76.48
71942;DHT22;59997;53.300;-6.260;2023-09-18T09:14:29;15.82;75.31
71942;DHT22;59997;53.300;-6.260;2023-09-18T09:16:56;15.40;76.44
71942;DHT22;59997;53.300;-6.260;2023-09-18T09:19:32;16.06;77.03
71942;DHT22;59997;53.300;-6.260;2023-09-18T09:22:01;16.21;76.05
71942;DHT22;59997;53.300;-6.260;2023-09-18T09:24:43;15.97;74.69
71942;DHT22;59997;53.300;-6.260;2023-09-18T09:27:10;15.72;75.33
71942;DHT22;59997;53.300;-6.260;2023-09-18T09:29:36;16.16;76.15
71942;DHT22;59997;53.300;-6.260;2023-09-18T09:32:16;16.31;75.25
71942;DHT22;59997;53.300;-6.260;2023-09-18T09:34:43;16.60;74.42
71942;DHT22;59997;53.300;-6.260;2023-09-18T09:37:08;16.47;74.07
71942;DHT22;59997;53.300;-6.260;2023-09-18T09:39:51;16.94;74.55
71942;DHT22;59997;53.300;-6.260;2023-09-18T09:42:18;16.27;72.33
71942;DHT22;59997;53.300;-6.260;2023-09-18T09:45:00;16.93;73.29
71942;DHT22;59997;53.300;-6.260;2023-09-18T09:47:26;16.69;71.75
71942;DHT22;59997;53.300;-6.260;2023-09-18T09:49:51;16.47;71.97
71942;DHT22;59997;53.300;-6.260;2023-09-18T09:52:19;16.87;72.05
71942;DHT22;59997;53.300;-6.260;2023-09-18T09:54:46;16.65;71.34
71942;DHT22;59997;53.300;-6.260;2023-09-18T09:57:12;16.68;72.20
71942;DHT22;59997;53.300;-6.260;2023-09-18T09:59:37;16.91;71.81
71942;DHT22;59997;53.300;-6.260;2023-09-18T10:02:03;16.77;71.47
71942;DHT22;59997;53.300;-6.260;2023-09-18T10:04:31;16.55;71.92
71942;DHT22;59997;53.300;-6.260;2023-09-18T10:07:07;16.70;71.66
71942;DHT22;59997;53.300;-6.260;2023-09-18T10:09:40;16.63;71.67
71942;DHT22;59997;53.300;-6.260;2023-09-18T10:12:11;16.79;69.69
71942;DHT22;59997;53.300;-6.260;2023-09-18T10:14:37;17.17;71.13
71942;DHT22;59997;53.300;-6.260;2023-09-18T10:17:14;16.69;71.14
71942;DHT22;59997;53.300;-6.260;2023-09-18T10:19:52;16.81;70.87
71942;DHT22;59997;53.300;-6.260;2023-09-18T10:22:28;16.31;71.42
71942;DHT22;59997;53.300;-6.260;2023-09-18T10:25:10;16.65;71.08
71942;DHT22;59997;53.300;-6.260;2023-09-18T10:27:39;16.59;70.20
71942;DHT22;59997;53.300;-6.260;2023-09-18T10:30:08;15.55;71.24
71942;DHT22;59997;53.300;-6.260;2023-09-18T10:32:38;15.10;75.05
71942;DHT22;59997;53.300;-6.260;2023-09-18T10:35:06;14.88;76.73
71942;DHT22;59997;53.300;-6.260;2023-09-18T10:37:33;14.45;78.64
71942;DHT22;59997;53.300;-6.260;2023-09-18T10:40:00;14.23;79.99
71942;DHT22;59997;53.300;-6.260;2023-09-18T10:42:27;14.71;79.68
71942;DHT22;59997;53.300;-6.260;2023-09-18T10:44:53;15.28;77.24
71942;DHT22;59997;53.300;-6.260;2023-09-18T10:47:19;15.83;75.47
71942;DHT22;59997;53.300;-6.260;2023-09-18T10:49:45;15.76;73.89
71942;DHT22;59997;53.300;-6.260;2023-09-18T10:52:12;16.40;73.55
71942;DHT22;59997;53.300;-6.260;2023-09-18T10:54:39;16.56;72.74
71942;DHT22;59997;53.300;-6.260;2023-09-18T10:57:05;16.55;72.03
71942;DHT22;59997;53.300;-6.260;2023-09-18T10:59:31;16.48;71.20
71942;DHT22;59997;53.300;-6.260;2023-09-18T11:02:02;17.15;70.91
71942;DHT22;59997;53.300;-6.260;2023-09-18T11:04:31;17.00;68.13
71942;DHT22;59997;53.300;-6.260;2023-09-18T11:07:00;16.80;69.62
71942;DHT22;59997;53.300;-6.260;2023-09-18T11:09:28;17.07;67.71
71942;DHT22;59997;53.300;-6.260;2023-09-18T11:14:47;17.11;68.09
71942;DHT22;59997;53.300;-6.260;2023-09-18T11:17:34;17.18;65.96
71942;DHT22;59997;53.300;-6.260;2023-09-18T11:20:17;17.15;67.34
71942;DHT22;59997;53.300;-6.260;2023-09-18T11:22:47;17.11;66.12
71942;DHT22;59997;53.300;-6.260;2023-09-18T11:28:01;16.69;68.69
71942;DHT22;59997;53.300;-6.260;2023-09-18T11:30:28;17.45;69.96
71942;DHT22;59997;53.300;-6.260;2023-09-18T11:32:55;18.48;65.56
71942;DHT22;59997;53.300;-6.260;2023-09-18T11:35:21;18.12;63.74
71942;DHT22;59997;53.300;-6.260;2023-09-18T11:37:46;17.80;64.59
71942;DHT22;59997;53.300;-6.260;2023-09-18T11:40:32;18.15;64.34
71942;DHT22;59997;53.300;-6.260;2023-09-18T11:43:20;18.24;63.81
71942;DHT22;59997;53.300;-6.260;2023-09-18T11:45:56;17.91;65.29
71942;DHT22;59997;53.300;-6.260;2023-09-18T11:48:26;17.56;65.70
71942;DHT22;59997;53.300;-6.260;2023-09-18T11:50:56;18.14;64.02
71942;DHT22;59997;53.300;-6.260;2023-09-18T11:53:24;18.61;65.72
71942;DHT22;59997;53.300;-6.260;2023-09-18T11:55:49;18.40;62.12
71942;DHT22;59997;53.300;-6.260;2023-09-18T11:58:15;18.75;66.10
71942;DHT22;59997;53.300;-6.260;2023-09-18T12:00:40;18.98;64.07
71942;DHT22;59997;53.300;-6.260;2023-09-18T12:03:23;18.64;62.87
71942;DHT22;59997;53.300;-6.260;2023-09-18T12:05:54;18.67;63.23
71942;DHT22;59997;53.300;-6.260;2023-09-18T12:08:21;18.25;61.15
71942;DHT22;59997;53.300;-6.260;2023-09-18T12:10:50;19.05;62.46
71942;DHT22;59997;53.300;-6.260;2023-09-18T12:13:16;19.42;61.90
71942;DHT22;59997;53.300;-6.260;2023-09-18T12:15:42;20.02;59.21
71942;DHT22;59997;53.300;-6.260;2023-09-18T12:18:10;18.63;60.79
71942;DHT22;59997;53.300;-6.260;2023-09-18T12:20:48;16.88;64.95
71942;DHT22;59997;53.300;-6.260;2023-09-18T12:23:18;15.66;72.07
71942;DHT22;59997;53.300;-6.260;2023-09-18T12:25:48;15.17;71.43
71942;DHT22;59997;53.300;-6.260;2023-09-18T12:28:14;15.41;71.82
71942;DHT22;59997;53.300;-6.260;2023-09-18T12:30:44;15.66;70.54
71942;DHT22;59997;53.300;-6.260;2023-09-18T12:33:12;15.81;71.22
71942;DHT22;59997;53.300;-6.260;2023-09-18T12:35:40;15.40;73.65
71942;DHT22;59997;53.300;-6.260;2023-09-18T12:38:16;15.37;75.06
71942;DHT22;59997;53.300;-6.260;2023-09-18T12:40:44;15.86;75.32
71942;DHT22;59997;53.300;-6.260;2023-09-18T12:43:12;15.65;73.11
71942;DHT22;59997;53.300;-6.260;2023-09-18T12:45:41;15.48;73.94
71942;DHT22;59997;53.300;-6.260;2023-09-18T12:48:06;15.65;73.29
71942;DHT22;59997;53.300;-6.260;2023-09-18T12:50:32;15.51;72.72
71942;DHT22;59997;53.300;-6.260;2023-09-18T12:53:13;15.35;73.06
71942;DHT22;59997;53.300;-6.260;2023-09-18T12:55:40;15.40;73.50
71942;DHT22;59997;53.300;-6.260;2023-09-18T12:58:11;16.63;71.89
71942;DHT22;59997;53.300;-6.260;2023-09-18T13:00:36;17.67;69.07
71942;DHT22;59997;53.300;-6.260;2023-09-18T13:03:03;17.83;66.39
71942;DHT22;59997;53.300;-6.260;2023-09-18T13:05:30;17.73;66.89
71942;DHT22;59997;53.300;-6.260;2023-09-18T13:08:05;18.02;64.36
71942;DHT22;59997;53.300;-6.260;2023-09-18T13:10:49;17.47;59.27
71942;DHT22;59997;53.300;-6.260;2023-09-18T13:13:20;17.45;61.11
71942;DHT22;59997;53.300;-6.260;2023-09-18T13:15:47;17.56;63.16
71942;DHT22;59997;53.300;-6.260;2023-09-18T13:18:16;17.53;64.21
71942;DHT22;59997;53.300;-6.260;2023-09-18T13:20:43;17.21;60.93
71942;DHT22;59997;53.300;-6.260;2023-09-18T13:23:09;16.97;60.98
71942;DHT22;59997;53.300;-6.260;2023-09-18T13:25:39;16.77;61.80
71942;DHT22;59997;53.300;-6.260;2023-09-18T13:28:08;16.86;63.80
71942;DHT22;59997;53.300;-6.260;2023-09-18T13:30:37;16.87;63.67
71942;DHT22;59997;53.300;-6.260;2023-09-18T13:33:12;16.97;64.96
71942;DHT22;59997;53.300;-6.260;2023-09-18T13:35:40;16.79;65.09
71942;DHT22;59997;53.300;-6.260;2023-09-18T13:38:06;16.68;64.47
71942;DHT22;59997;53.300;-6.260;2023-09-18T13:40:36;16.68;66.03
71942;DHT22;59997;53.300;-6.260;2023-09-18T13:43:06;16.91;64.82
71942;DHT22;59997;53.300;-6.260;2023-09-18T13:45:33;16.83;63.95
71942;DHT22;59997;53.300;-6.260;2023-09-18T13:48:01;16.79;64.86
71942;DHT22;59997;53.300;-6.260;2023-09-18T13:50:27;16.81;65.59
71942;DHT22;59997;53.300;-6.260;2023-09-18T13:52:52;16.87;66.35
71942;DHT22;59997;53.300;-6.260;2023-09-18T13:55:19;16.94;65.95
71942;DHT22;59997;53.300;-6.260;2023-09-18T13:57:44;16.59;65.28
71942;DHT22;59997;53.300;-6.260;2023-09-18T14:00:10;16.41;67.77
71942;DHT22;59997;53.300;-6.260;2023-09-18T14:02:41;16.27;66.80
71942;DHT22;59997;53.300;-6.260;2023-09-18T14:05:07;16.44;66.40
71942;DHT22;59997;53.300;-6.260;2023-09-18T14:07:34;16.53;66.15
71942;DHT22;59997;53.300;-6.260;2023-09-18T14:09:59;16.08;66.77
71942;DHT22;59997;53.300;-6.260;2023-09-18T14:12:29;15.82;65.90
71942;DHT22;59997;53.300;-6.260;2023-09-18T14:14:55;15.58;68.58
71942;DHT22;59997;53.300;-6.260;2023-09-18T14:17:21;15.97;68.65
71942;DHT22;59997;53.300;-6.260;2023-09-18T14:19:47;15.66;66.94
71942;DHT22;59997;53.300;-6.260;2023-09-18T14:22:12;15.75;68.25
71942;DHT22;59997;53.300;-6.260;2023-09-18T14:24:39;15.72;67.25
71942;DHT22;59997;53.300;-6.260;2023-09-18T14:27:05;15.62;68.23
71942;DHT22;59997;53.300;-6.260;2023-09-18T14:29:32;15.48;67.87
71942;DHT22;59997;53.300;-6.260;2023-09-18T14:32:01;15.69;69.48
71942;DHT22;59997;53.300;-6.260;2023-09-18T14:34:28;15.96;68.42
71942;DHT22;59997;53.300;-6.260;2023-09-18T14:36:55;15.89;66.94
71942;DHT22;59997;53.300;-6.260;2023-09-18T14:39:21;16.01;67.77
71942;DHT22;59997;53.300;-6.260;2023-09-18T14:41:46;15.92;67.28
71942;DHT22;59997;53.300;-6.260;2023-09-18T14:44:13;15.97;66.78
71942;DHT22;59997;53.300;-6.260;2023-09-18T14:46:39;15.78;65.99
71942;DHT22;59997;53.300;-6.260;2023-09-18T14:49:05;15.99;66.25
71942;DHT22;59997;53.300;-6.260;2023-09-18T14:51:33;15.76;65.05
71942;DHT22;59997;53.300;-6.260;2023-09-18T14:53:59;15.59;65.75
71942;DHT22;59997;53.300;-6.260;2023-09-18T14:56:25;15.75;66.04
71942;DHT22;59997;53.300;-6.260;2023-09-18T14:58:51;16.00;64.32
71942;DHT22;59997;53.300;-6.260;2023-09-18T15:01:21;16.27;66.09
71942;DHT22;59997;53.300;-6.260;2023-09-18T15:03:47;16.11;64.36
71942;DHT22;59997;53.300;-6.260;2023-09-18T15:06:15;16.11;63.87
71942;DHT22;59997;53.300;-6.260;2023-09-18T15:08:41;16.10;66.56
71942;DHT22;59997;53.300;-6.260;2023-09-18T15:11:06;16.00;66.07
71942;DHT22;59997;53.300;-6.260;2023-09-18T15:13:34;16.03;66.60
71942;DHT22;59997;53.300;-6.260;2023-09-18T15:16:01;16.04;66.41
71942;DHT22;59997;53.300;-6.260;2023-09-18T15:18:27;15.81;67.10
71942;DHT22;59997;53.300;-6.260;2023-09-18T15:20:52;15.90;66.07
71942;DHT22;59997;53.300;-6.260;2023-09-18T15:23:21;15.85;64.57
71942;DHT22;59997;53.300;-6.260;2023-09-18T15:25:48;15.89;65.35
71942;DHT22;59997;53.300;-6.260;2023-09-18T15:28:16;15.81;65.47